createdAt,value
2023-05-02T00:02:11.653Z,44.81
2023-05-02T00:04:40.309Z,44.58
2023-05-02T00:07:09.769Z,44.75
2023-05-02T00:09:38.091Z,44.60
2023-05-02T00:12:06.626Z,44.84
2023-05-02T00:14:34.918Z,44.51
2023-05-02T00:17:03.081Z,44.75
2023-05-02T00:19:31.319Z,44.95
2023-05-02T00:21:59.443Z,45.00
2023-05-02T00:24:28.949Z,44.77
2023-05-02T00:26:57.055Z,44.95
2023-05-02T00:29:25.110Z,44.61
2023-05-02T00:31:53.220Z,45.34
2023-05-02T00:34:21.381Z,44.85
2023-05-02T00:36:49.671Z,44.83
2023-05-02T00:39:17.801Z,44.95
2023-05-02T00:41:47.588Z,44.72
2023-05-02T00:44:15.775Z,44.59
2023-05-02T00:46:43.935Z,44.78
2023-05-02T00:49:13.099Z,44.93
2023-05-02T00:51:41.604Z,44.76
2023-05-02T00:54:09.741Z,44.77
2023-05-02T00:56:38.071Z,44.88
2023-05-02T00:59:10.065Z,44.72
2023-05-02T01:01:44.598Z,44.46
2023-05-02T01:04:24.464Z,44.31
2023-05-02T01:07:07.635Z,44.72
2023-05-02T01:09:43.396Z,44.53
2023-05-02T01:12:20.102Z,44.91
2023-05-02T01:14:55.276Z,44.60
2023-05-02T01:17:29.196Z,44.52
2023-05-02T01:20:01.565Z,44.40
2023-05-02T01:22:30.788Z,44.32
2023-05-02T01:25:05.952Z,44.58
2023-05-02T01:27:41.411Z,44.40
2023-05-02T01:30:14.508Z,43.99
2023-05-02T01:32:44.880Z,44.19
2023-05-02T01:35:16.113Z,44.31
2023-05-02T01:37:46.795Z,44.44
2023-05-02T01:40:18.427Z,43.97
2023-05-02T01:42:48.836Z,44.17
2023-05-02T01:45:20.097Z,43.87
2023-05-02T01:47:49.646Z,44.12
2023-05-02T01:50:25.048Z,44.23
2023-05-02T01:52:55.231Z,43.78
2023-05-02T01:55:25.304Z,43.79
2023-05-02T01:57:57.778Z,44.16
2023-05-02T02:00:27.660Z,43.84
2023-05-02T02:02:58.178Z,44.31
2023-05-02T02:05:28.194Z,43.93
2023-05-02T02:07:56.358Z,44.30
2023-05-02T02:10:27.688Z,44.29
2023-05-02T02:13:02.121Z,43.90
2023-05-02T02:15:36.216Z,44.28
2023-05-02T02:18:11.503Z,44.03
2023-05-02T02:20:44.101Z,43.96
2023-05-02T02:23:14.008Z,44.24
2023-05-02T02:25:43.604Z,43.94
2023-05-02T02:28:12.267Z,44.33
2023-05-02T02:30:42.243Z,44.04
2023-05-02T02:33:10.360Z,43.92
2023-05-02T02:35:43.480Z,43.98
2023-05-02T02:38:20.738Z,44.04
2023-05-02T02:40:54.501Z,44.05
2023-05-02T02:43:34.864Z,44.36
2023-05-02T02:46:18.663Z,44.24
2023-05-02T02:48:57.100Z,44.15
2023-05-02T02:51:33.012Z,44.46
2023-05-02T02:54:18.992Z,43.93
2023-05-02T02:57:02.784Z,44.44
2023-05-02T02:59:35.035Z,44.24
2023-05-02T03:02:09.370Z,44.28
2023-05-02T03:04:40.103Z,44.45
2023-05-02T03:07:08.663Z,44.18
2023-05-02T03:09:42.759Z,44.08
2023-05-02T03:12:11.011Z,44.46
2023-05-02T03:14:39.943Z,44.43
2023-05-02T03:17:09.605Z,44.38
2023-05-02T03:19:38.000Z,44.77
2023-05-02T03:22:06.173Z,44.59
2023-05-02T03:24:34.503Z,44.36
2023-05-02T03:27:03.037Z,44.40
2023-05-02T03:29:31.354Z,44.33
2023-05-02T03:31:59.617Z,44.68
2023-05-02T03:34:29.029Z,44.81
2023-05-02T03:36:57.071Z,44.58
2023-05-02T03:39:25.233Z,44.62
2023-05-02T03:41:53.850Z,44.43
2023-05-02T03:44:22.062Z,44.65
2023-05-02T03:46:50.134Z,44.81
2023-05-02T03:49:19.710Z,44.64
2023-05-02T03:51:49.269Z,44.67
2023-05-02T03:54:17.736Z,44.42
2023-05-02T03:56:47.937Z,44.34
2023-05-02T03:59:16.403Z,44.44
2023-05-02T04:01:44.584Z,44.76
2023-05-02T04:04:13.170Z,44.50
2023-05-02T04:06:41.286Z,44.64
2023-05-02T04:09:10.826Z,44.90
2023-05-02T04:11:38.914Z,44.50
2023-05-02T04:14:07.051Z,44.73
2023-05-02T04:16:35.146Z,44.71
2023-05-02T04:19:03.281Z,44.44
2023-05-02T04:21:31.916Z,44.57
2023-05-02T04:24:00.365Z,44.78
2023-05-02T04:26:29.843Z,44.46
2023-05-02T04:28:57.921Z,44.95
2023-05-02T04:31:26.113Z,44.87
2023-05-02T04:33:54.285Z,44.59
2023-05-02T04:36:22.344Z,44.70
2023-05-02T04:38:53.670Z,44.37
2023-05-02T04:41:21.989Z,44.85
2023-05-02T04:43:51.594Z,44.85
2023-05-02T04:46:19.807Z,44.58
2023-05-02T04:48:48.017Z,44.86
2023-05-02T04:51:17.179Z,44.71
2023-05-02T04:53:45.469Z,44.47
2023-05-02T04:56:14.233Z,44.34
2023-05-02T04:58:42.283Z,44.31
2023-05-02T05:01:11.803Z,44.53
2023-05-02T05:03:40.053Z,44.50
2023-05-02T05:06:08.265Z,44.83
2023-05-02T05:08:36.698Z,44.49
2023-05-02T05:11:20.461Z,44.63
2023-05-02T05:13:48.595Z,44.51
2023-05-02T05:16:18.080Z,44.56
2023-05-02T05:18:47.187Z,44.57
2023-05-02T05:21:15.385Z,44.20
2023-05-02T05:23:46.188Z,44.55
2023-05-02T05:26:16.353Z,44.38
2023-05-02T05:28:45.359Z,44.55
2023-05-02T05:31:16.836Z,44.69
2023-05-02T05:33:46.816Z,44.44
2023-05-02T05:36:15.641Z,44.62
2023-05-02T05:38:44.713Z,44.50
2023-05-02T05:41:12.729Z,45.27
2023-05-02T05:43:40.988Z,44.96
2023-05-02T05:46:09.115Z,45.43
2023-05-02T05:48:37.445Z,45.52
2023-05-02T05:51:07.686Z,45.57
2023-05-02T05:53:36.461Z,46.03
2023-05-02T05:56:10.270Z,45.66
2023-05-02T05:58:38.571Z,45.56
2023-05-02T06:01:07.380Z,45.71
2023-05-02T06:03:35.834Z,45.56
2023-05-02T06:06:04.082Z,45.81
2023-05-02T06:08:33.565Z,46.09
2023-05-02T06:11:01.688Z,46.13
2023-05-02T06:13:29.862Z,46.31
2023-05-02T06:16:01.920Z,46.25
2023-05-02T06:18:30.188Z,46.56
2023-05-02T06:20:59.324Z,46.23
2023-05-02T06:23:27.564Z,46.80
2023-05-02T06:26:00.777Z,47.15
2023-05-02T06:28:29.120Z,47.54
2023-05-02T06:31:01.299Z,47.52
2023-05-02T06:33:29.698Z,47.48
2023-05-02T06:35:59.277Z,47.86
2023-05-02T06:38:32.423Z,47.98
2023-05-02T06:41:01.844Z,48.49
2023-05-02T06:43:30.036Z,48.18
2023-05-02T06:45:58.699Z,48.49
2023-05-02T06:48:26.728Z,48.40
2023-05-02T06:50:55.118Z,48.71
2023-05-02T06:53:23.398Z,48.71
2023-05-02T06:55:51.689Z,48.76
2023-05-02T06:58:21.180Z,48.89
2023-05-02T07:00:50.467Z,48.69
2023-05-02T07:03:18.591Z,48.86
2023-05-02T07:05:46.764Z,49.10
2023-05-02T07:08:14.864Z,49.06
2023-05-02T07:10:43.022Z,49.21
2023-05-02T07:13:11.516Z,49.08
2023-05-02T07:15:41.042Z,49.16
2023-05-02T07:18:09.136Z,48.85
2023-05-02T07:20:38.820Z,48.75
2023-05-02T07:23:06.988Z,49.10
2023-05-02T07:25:35.075Z,49.14
2023-05-02T07:28:03.224Z,48.45
2023-05-02T07:30:31.334Z,48.28
2023-05-02T07:33:00.839Z,48.71
2023-05-02T07:35:29.245Z,48.40
2023-05-02T07:37:58.162Z,48.33
2023-05-02T07:40:26.316Z,47.96
2023-05-02T07:42:54.352Z,47.95
2023-05-02T07:45:22.941Z,47.95
2023-05-02T07:47:51.126Z,48.22
2023-05-02T07:50:20.886Z,48.26
2023-05-02T07:52:49.007Z,48.18
2023-05-02T07:55:17.236Z,47.88
2023-05-02T07:57:45.765Z,47.64
2023-05-02T08:00:15.126Z,47.69
2023-05-02T08:02:43.663Z,47.92
2023-05-02T08:05:17.943Z,47.96
2023-05-02T08:07:47.693Z,47.89
2023-05-02T08:10:16.640Z,47.86
2023-05-02T08:12:44.675Z,48.18
2023-05-02T08:15:14.718Z,47.86
2023-05-02T08:17:42.870Z,48.24
2023-05-02T08:20:11.694Z,48.08
2023-05-02T08:22:39.963Z,48.29
2023-05-02T08:25:10.070Z,47.98
2023-05-02T08:27:38.137Z,48.19
2023-05-02T08:30:08.179Z,48.03
2023-05-02T08:32:38.000Z,47.90
2023-05-02T08:35:07.172Z,48.42
2023-05-02T08:37:36.425Z,47.93
2023-05-02T08:40:05.141Z,48.03
2023-05-02T08:42:35.201Z,48.07
2023-05-02T08:45:03.821Z,48.39
2023-05-02T08:47:33.608Z,48.44
2023-05-02T08:50:02.905Z,48.94
2023-05-02T08:52:33.382Z,48.82
2023-05-02T08:55:02.856Z,48.80
2023-05-02T08:57:31.740Z,48.76
2023-05-02T09:00:01.959Z,48.86
2023-05-02T09:02:49.176Z,48.87
2023-05-02T09:05:21.205Z,48.73
2023-05-02T09:07:50.326Z,49.02
2023-05-02T09:10:18.767Z,49.13
2023-05-02T09:12:47.154Z,48.76
2023-05-02T09:15:20.745Z,48.84
2023-05-02T09:17:49.811Z,48.70
2023-05-02T09:20:18.696Z,49.14
2023-05-02T09:22:51.417Z,48.97
2023-05-02T09:25:21.227Z,49.09
2023-05-02T09:27:54.320Z,49.19
2023-05-02T09:30:26.235Z,48.91
2023-05-02T09:32:55.896Z,48.93
2023-05-02T09:35:27.400Z,48.83
2023-05-02T09:37:57.256Z,48.90
2023-05-02T09:40:27.580Z,49.11
2023-05-02T09:42:57.403Z,49.33
2023-05-02T09:45:27.622Z,49.08
2023-05-02T09:47:55.783Z,48.95
2023-05-02T09:50:35.042Z,49.14
2023-05-02T09:53:05.110Z,49.13
2023-05-02T09:55:33.237Z,49.23
2023-05-02T09:58:02.076Z,49.38
2023-05-02T10:00:42.348Z,49.38
2023-05-02T10:03:10.994Z,49.02
2023-05-02T10:05:41.112Z,49.09
2023-05-02T10:08:10.343Z,49.31
2023-05-02T10:10:40.921Z,49.17
2023-05-02T10:13:10.547Z,49.24
2023-05-02T10:15:45.751Z,48.94
2023-05-02T10:18:22.314Z,48.94
2023-05-02T10:20:57.661Z,49.11
2023-05-02T10:23:30.282Z,49.04
2023-05-02T10:26:00.568Z,49.02
2023-05-02T10:28:29.234Z,48.95
2023-05-02T10:31:02.341Z,48.77
2023-05-02T10:33:32.517Z,49.29
2023-05-02T10:36:00.784Z,48.76
2023-05-02T10:38:28.974Z,49.12
2023-05-02T10:41:02.210Z,48.96
2023-05-02T10:43:34.847Z,48.78
2023-05-02T10:46:04.928Z,48.86
2023-05-02T10:48:33.467Z,48.97
2023-05-02T10:51:02.298Z,48.93
2023-05-02T10:53:33.368Z,48.84
2023-05-02T10:56:13.812Z,48.76
2023-05-02T10:58:42.554Z,48.93
2023-05-02T11:01:40.010Z,48.65
2023-05-02T11:04:10.121Z,48.67
2023-05-02T11:06:59.071Z,48.53
2023-05-02T11:09:34.667Z,48.69
2023-05-02T11:12:05.932Z,48.52
2023-05-02T11:14:52.159Z,48.42
2023-05-02T11:17:21.762Z,48.29
2023-05-02T11:20:23.056Z,48.37
2023-05-02T11:22:51.749Z,48.14
2023-05-02T11:25:37.046Z,48.24
2023-05-02T11:28:08.264Z,48.32
2023-05-02T11:30:41.770Z,48.30
2023-05-02T11:33:19.952Z,48.19
2023-05-02T11:35:49.364Z,48.09
2023-05-02T11:38:22.281Z,47.87
2023-05-02T11:40:55.896Z,48.20
2023-05-02T11:43:25.264Z,48.12
2023-05-02T11:45:54.687Z,48.04
2023-05-02T11:48:27.261Z,48.02
2023-05-02T11:50:57.427Z,47.84
2023-05-02T11:53:26.851Z,48.05
2023-05-02T11:55:57.381Z,47.83
2023-05-02T11:58:27.636Z,47.73
2023-05-02T12:00:58.597Z,47.60
2023-05-02T12:03:31.315Z,47.59
2023-05-02T12:06:09.964Z,47.70
2023-05-02T12:08:38.751Z,47.72
2023-05-02T12:11:07.469Z,47.70
2023-05-02T12:13:36.167Z,47.52
2023-05-02T12:16:04.518Z,47.51
2023-05-02T12:18:34.353Z,47.52
2023-05-02T12:21:02.760Z,47.64
2023-05-02T12:23:31.125Z,47.46
2023-05-02T12:26:00.482Z,47.38
2023-05-02T12:28:28.950Z,47.57
2023-05-02T12:30:57.236Z,47.55
2023-05-02T12:33:25.543Z,47.36
2023-05-02T12:35:54.985Z,47.25
2023-05-02T12:38:25.787Z,47.29
2023-05-02T12:40:57.683Z,47.36
2023-05-02T12:43:26.125Z,47.21
2023-05-02T12:46:13.083Z,47.24
2023-05-02T12:48:41.718Z,47.20
2023-05-02T12:51:24.372Z,46.91
2023-05-02T12:53:52.922Z,46.95
2023-05-02T12:56:21.067Z,47.03
2023-05-02T12:58:49.440Z,47.00
2023-05-02T13:01:18.137Z,46.92
2023-05-02T13:03:46.774Z,46.68
2023-05-02T13:06:15.052Z,46.92
2023-05-02T13:08:44.779Z,46.50
2023-05-02T13:11:13.064Z,46.42
2023-05-02T13:13:41.202Z,46.57
2023-05-02T13:16:09.824Z,46.63
2023-05-02T13:18:38.269Z,46.55
2023-05-02T13:21:06.431Z,46.53
2023-05-02T13:23:34.510Z,46.86
2023-05-02T13:26:04.292Z,46.58
2023-05-02T13:28:33.411Z,46.77
2023-05-02T13:31:01.712Z,46.87
2023-05-02T13:33:30.091Z,46.83
2023-05-02T13:35:58.135Z,46.67
2023-05-02T13:38:26.758Z,46.69
2023-05-02T13:40:55.599Z,46.74
2023-05-02T13:43:25.360Z,46.81
2023-05-02T13:45:53.724Z,46.78
2023-05-02T13:48:21.944Z,46.84
2023-05-02T13:50:50.188Z,46.85
2023-05-02T13:53:18.422Z,46.86
2023-05-02T13:55:47.171Z,46.64
2023-05-02T13:58:15.583Z,46.64
2023-05-02T14:00:45.063Z,46.66
2023-05-02T14:03:13.750Z,46.71
2023-05-02T14:05:43.693Z,46.72
2023-05-02T14:08:12.134Z,46.92
2023-05-02T14:10:40.625Z,46.86
2023-05-02T14:13:08.792Z,46.67
2023-05-02T14:15:37.571Z,46.81
2023-05-02T14:18:07.250Z,46.83
2023-05-02T14:20:35.556Z,46.97
2023-05-02T14:23:04.694Z,47.04
2023-05-02T14:25:34.360Z,46.93
2023-05-02T14:28:02.841Z,46.85
2023-05-02T14:30:31.342Z,46.73
2023-05-02T14:32:59.682Z,46.81
2023-05-02T14:35:29.241Z,46.87
2023-05-02T14:37:57.732Z,46.72
2023-05-02T14:40:25.888Z,46.79
2023-05-02T14:42:53.901Z,46.85
2023-05-02T14:45:22.546Z,46.68
2023-05-02T14:47:51.430Z,46.39
2023-05-02T14:50:19.923Z,46.75
2023-05-02T14:52:49.488Z,46.54
2023-05-02T14:55:17.836Z,46.66
2023-05-02T14:57:45.886Z,46.59
2023-05-02T15:00:16.081Z,46.73
2023-05-02T15:02:44.404Z,46.80
2023-05-02T15:05:13.113Z,46.60
2023-05-02T15:07:41.320Z,46.79
2023-05-02T15:10:11.381Z,46.67
2023-05-02T15:12:39.470Z,46.55
2023-05-02T15:15:09.155Z,46.32
2023-05-02T15:17:37.264Z,46.42
2023-05-02T15:20:06.175Z,46.15
2023-05-02T15:22:34.543Z,46.24
2023-05-02T15:25:04.608Z,46.11
2023-05-02T15:27:34.775Z,45.97
2023-05-02T15:30:03.911Z,45.81
2023-05-02T15:32:32.706Z,46.00
2023-05-02T15:35:00.842Z,46.08
2023-05-02T15:37:28.967Z,45.84
2023-05-02T15:39:57.164Z,46.10
2023-05-02T15:42:25.458Z,46.08
2023-05-02T15:44:54.898Z,45.95
2023-05-02T15:47:23.261Z,46.15
2023-05-02T15:49:53.978Z,46.21
2023-05-02T15:52:22.538Z,46.36
2023-05-02T15:54:51.869Z,46.49
2023-05-02T15:57:21.282Z,46.09
2023-05-02T15:59:49.962Z,46.37
2023-05-02T16:02:29.587Z,46.12
2023-05-02T16:04:57.670Z,46.20
2023-05-02T16:07:25.767Z,46.21
2023-05-02T16:09:53.905Z,46.37
2023-05-02T16:12:22.111Z,46.35
2023-05-02T16:14:50.230Z,46.42
2023-05-02T16:17:18.505Z,46.20
2023-05-02T16:19:48.177Z,45.97
2023-05-02T16:22:16.589Z,46.18
2023-05-02T16:24:44.752Z,46.44
2023-05-02T16:27:12.949Z,46.30
2023-05-02T16:29:41.964Z,46.45
2023-05-02T16:32:10.488Z,46.55
2023-05-02T16:34:38.655Z,46.50
2023-05-02T16:37:08.141Z,46.49
2023-05-02T16:39:36.646Z,46.46
2023-05-02T16:42:05.651Z,46.36
2023-05-02T16:44:33.708Z,46.43
2023-05-02T16:47:01.781Z,46.42
2023-05-02T16:49:30.362Z,46.47
2023-05-02T16:51:58.484Z,46.73
2023-05-02T16:54:29.089Z,46.56
2023-05-02T16:56:57.196Z,46.47
2023-05-02T16:59:25.741Z,46.46
2023-05-02T17:01:54.024Z,46.30
2023-05-02T17:04:22.691Z,46.32
2023-05-02T17:06:51.057Z,46.44
2023-05-02T17:09:19.470Z,46.46
2023-05-02T17:11:49.061Z,46.09
2023-05-02T17:14:17.364Z,46.21
2023-05-02T17:16:45.935Z,45.66
2023-05-02T17:19:14.225Z,45.61
2023-05-02T17:21:42.626Z,45.25
2023-05-02T17:24:11.257Z,45.13
2023-05-02T17:26:39.532Z,44.94
2023-05-02T17:29:09.069Z,44.82
2023-05-02T17:31:38.194Z,44.61
2023-05-02T17:34:07.088Z,44.55
2023-05-02T17:36:36.378Z,44.47
2023-05-02T17:39:05.097Z,44.53
2023-05-02T17:41:39.108Z,44.47
2023-05-02T17:44:09.172Z,44.17
2023-05-02T17:46:37.688Z,44.36
2023-05-02T17:49:06.604Z,44.11
2023-05-02T17:51:34.772Z,44.04
2023-05-02T17:54:04.578Z,44.31
2023-05-02T17:56:34.561Z,44.00
2023-05-02T17:59:02.725Z,44.26
2023-05-02T18:01:32.325Z,44.02
2023-05-02T18:04:01.098Z,44.13
2023-05-02T18:06:29.730Z,44.10
2023-05-02T18:08:58.096Z,44.19
2023-05-02T18:11:27.798Z,44.26
2023-05-02T18:13:57.123Z,44.20
2023-05-02T18:16:25.450Z,44.14
2023-05-02T18:18:54.910Z,44.08
2023-05-02T18:21:23.934Z,44.42
2023-05-02T18:23:54.971Z,44.42
2023-05-02T18:26:23.136Z,44.58
2023-05-02T18:28:53.523Z,44.71
2023-05-02T18:31:22.179Z,44.89
2023-05-02T18:33:51.544Z,45.12
2023-05-02T18:36:25.726Z,45.14
2023-05-02T18:38:55.259Z,44.95
2023-05-02T18:41:23.560Z,45.10
2023-05-02T18:43:53.046Z,45.01
2023-05-02T18:46:21.444Z,45.03
2023-05-02T18:48:49.555Z,45.24
2023-05-02T18:51:18.455Z,45.34
2023-05-02T18:53:49.056Z,45.36
2023-05-02T18:56:17.316Z,45.61
2023-05-02T18:58:46.174Z,45.47
2023-05-02T19:01:15.325Z,45.68
2023-05-02T19:03:44.199Z,45.72
2023-05-02T19:06:14.023Z,45.98
2023-05-02T19:08:42.311Z,45.86
2023-05-02T19:11:14.488Z,45.75
2023-05-02T19:13:42.608Z,45.93
2023-05-02T19:16:12.789Z,45.92
2023-05-02T19:18:41.537Z,46.16
2023-05-02T19:21:12.684Z,46.26
2023-05-02T19:23:42.964Z,46.09
2023-05-02T19:26:13.539Z,46.14
2023-05-02T19:28:42.360Z,46.22
2023-05-02T19:31:11.791Z,46.24
2023-05-02T19:33:41.001Z,46.32
2023-05-02T19:36:09.480Z,46.22
2023-05-02T19:38:37.793Z,46.57
2023-05-02T19:41:06.196Z,46.52
2023-05-02T19:43:36.267Z,46.52
2023-05-02T19:46:04.482Z,46.78
2023-05-02T19:48:32.853Z,46.90
2023-05-02T19:51:04.048Z,46.85
2023-05-02T19:53:32.524Z,46.95
2023-05-02T19:56:01.687Z,46.85
2023-05-02T19:58:31.115Z,46.87
2023-05-02T20:01:00.902Z,46.91
2023-05-02T20:03:29.206Z,46.96
2023-05-02T20:05:58.577Z,47.08
2023-05-02T20:08:28.041Z,47.06
2023-05-02T20:10:56.729Z,47.16
2023-05-02T20:13:25.473Z,47.30
2023-05-02T20:15:54.590Z,48.36
2023-05-02T20:18:24.276Z,47.80
2023-05-02T20:20:52.433Z,47.58
2023-05-02T20:23:20.577Z,47.64
2023-05-02T20:25:48.681Z,47.81
2023-05-02T20:28:16.766Z,47.77
2023-05-02T20:30:44.895Z,47.64
2023-05-02T20:33:16.670Z,47.99
2023-05-02T20:35:46.685Z,48.12
2023-05-02T20:38:17.698Z,48.12
2023-05-02T20:40:45.861Z,48.16
2023-05-02T20:43:14.304Z,48.37
2023-05-02T20:45:42.539Z,48.00
2023-05-02T20:48:10.799Z,48.20
2023-05-02T20:50:38.942Z,48.30
2023-05-02T20:53:09.101Z,48.54
2023-05-02T20:55:37.117Z,48.34
2023-05-02T20:58:05.339Z,48.58
2023-05-02T21:00:33.679Z,48.74
2023-05-02T21:03:03.886Z,48.31
2023-05-02T21:05:32.336Z,48.81
2023-05-02T21:08:00.552Z,48.86
2023-05-02T21:10:32.283Z,48.96
2023-05-02T21:13:00.419Z,48.69
2023-05-02T21:15:28.663Z,48.74
2023-05-02T21:18:03.535Z,48.80
2023-05-02T21:20:31.931Z,48.80
2023-05-02T21:23:00.305Z,48.99
2023-05-02T21:25:28.421Z,48.80
2023-05-02T21:27:57.866Z,48.80
2023-05-02T21:30:26.004Z,48.91
2023-05-02T21:32:54.123Z,49.18
2023-05-02T21:35:22.224Z,48.89
2023-05-02T21:37:50.333Z,49.05
2023-05-02T21:40:19.054Z,48.86
2023-05-02T21:42:47.186Z,49.17
2023-05-02T21:45:16.838Z,49.01
2023-05-02T21:47:44.985Z,49.09
2023-05-02T21:50:13.179Z,49.01
2023-05-02T21:52:42.367Z,49.17
2023-05-02T21:55:11.167Z,49.11
2023-05-02T21:57:39.358Z,49.38
2023-05-02T22:00:09.034Z,49.23
2023-05-02T22:02:39.668Z,49.63
2023-05-02T22:05:08.460Z,49.67
2023-05-02T22:07:36.990Z,49.41
2023-05-02T22:10:06.797Z,49.36
2023-05-02T22:12:35.125Z,49.54
2023-05-02T22:15:03.632Z,49.44
2023-05-02T22:17:32.765Z,49.66
2023-05-02T22:20:02.641Z,49.48
2023-05-02T22:22:31.187Z,49.64
2023-05-02T22:24:59.291Z,49.64
2023-05-02T22:27:27.405Z,49.54
2023-05-02T22:29:56.273Z,49.65
2023-05-02T22:32:24.449Z,49.60
2023-05-02T22:34:52.434Z,49.68
2023-05-02T22:37:22.016Z,49.90
2023-05-02T22:39:51.091Z,49.73
2023-05-02T22:42:19.545Z,49.88
2023-05-02T22:44:54.085Z,49.92
2023-05-02T22:47:22.923Z,49.80
2023-05-02T22:49:52.173Z,49.85
2023-05-02T22:52:21.607Z,49.85
2023-05-02T22:54:49.682Z,49.69
2023-05-02T22:57:17.713Z,49.88
2023-05-02T22:59:45.949Z,49.88
2023-05-02T23:02:14.060Z,50.03
2023-05-02T23:04:42.085Z,49.90
2023-05-02T23:07:10.287Z,50.10
2023-05-02T23:09:39.972Z,50.19
2023-05-02T23:12:08.386Z,49.92
2023-05-02T23:14:36.730Z,49.98
2023-05-02T23:17:04.864Z,50.11
2023-05-02T23:19:33.045Z,50.14
2023-05-02T23:22:01.207Z,50.04
2023-05-02T23:24:29.880Z,50.21
2023-05-02T23:26:59.343Z,50.01
2023-05-02T23:29:27.510Z,49.98
2023-05-02T23:31:55.919Z,49.98
2023-05-02T23:34:24.331Z,50.12
2023-05-02T23:36:53.616Z,50.22
2023-05-02T23:39:21.794Z,50.08
2023-05-02T23:41:49.981Z,50.19
2023-05-02T23:44:19.392Z,49.96
2023-05-02T23:46:47.862Z,50.33
2023-05-02T23:49:16.423Z,50.54
2023-05-02T23:51:44.806Z,50.19
2023-05-02T23:54:12.917Z,50.42
2023-05-02T23:56:41.269Z,50.65
2023-05-02T23:59:09.630Z,50.17
